Vila Real, Portugal

9:03 AM WEST on July 01, 2015 (GMT +0100)
Moimenta Da Beira | | Change Station
CLOSE
Current Station
Personal Weather Station
Location: Moimenta Da Beira, PT
Elevation: 2116 ft
Nearby Weather Stations

Elev 2116 ft 40.98 °N, 7.61 °W | Updated 2 minutes ago

Partly Cloudy
Partly Cloudy
60.2 °F
Feels Like 60.2 °F
N
3.8
Wind Variable Wind from NW
Gusts 6.0 mph

Today
High -- | Low -- °F
--% Chance of Precip.
Yesterday
High -- | Low -- °F
Precip. -- in
6:01 AM 9:07 PM
Waxing Gibbous, 99% visible
Pressure 29.95 in
Visibility 6.2 miles
Clouds Few 3000 ft
Dew Point 55 °F
Humidity 83%
Rainfall 0.00 in
Snow Depth Not available.
UV 2 out of 12
Pollen Not available.
Air Quality Not available.
Flu Activity Not available.
METAR LPPR 010730Z 17006KT 9999 FEW030 19/16 Q1014

More Conditions Fewer Conditions

Pressure 29.95 in
Visibility 6.2 miles
Clouds Few 3000 ft
Dew Point 55 °F
Humidity 83%
Rainfall 0.00 in
Snow Depth Not available.
UV 2 out of 12
Pollen Not available.
Air Quality Not available.
Flu Activity Not available.
METAR LPPR 010730Z 17006KT 9999 FEW030 19/16 Q1014

More Conditions Fewer Conditions

10-Day Weather Forecast

×

Almanac

Astronomy

Jul. 01, 2015 Rise Set
Actual Time
Civil Twilight
Nautical Twilight
Astronomical Twilight
Moon
Length of Visible Light
Length of Day
Tomorrow will be .
, % of the Moon is Illuminated

Today's Extremes

Country Highs Country Lows

Community

WunderPhotos

Upload Photos

1,834,164 photos uploaded!

WunderBlogs® & News

Nearby

Air Quality

  Air Quality AQ Index Pollutant
Not available.

Snow Depth

Station Depth Elevation

Earthquake Activity

City Distance Mag. Time & Date
Minimum magnitude displayed is 2.5.

Coastal Water Temperatures

Place Temperature

Stations

Nearby Weather Stations

Station Location Temp. Windchill Dew Point Humidity Wind Precip. Elev Updated Type